Time;durP1;ratioP1;P1;durP2;ratioP2;P2;SDS_P1;SDS_P2;PMS_P1;PMS_P2;Temp;Humidity;BMP_temperature;BMP_pressure;BME280_temperature;BME280_humidity;BME280_pressure;Samples;Min_cycle;Max_cycle;Signal;HPM_P1;HPM_P2
2021/12/06 00:01:15;;;;;;;0.20;0.10;;;;;;;2.30;100.00;99674.09;5052636;28;20450;-49
2021/12/06 00:03:45;;;;;;;0.20;0.10;;;;;;;2.17;100.00;99675.03;5045962;28;20866;-52
2021/12/06 00:06:13;;;;;;;0.30;0.30;;;;;;;2.40;100.00;99669.69;5046973;28;20451;-49
2021/12/06 00:08:39;;;;;;;0.30;0.20;;;;;;;2.26;100.00;99675.88;5035235;28;20532;-49
2021/12/06 00:11:08;;;;;;;0.20;0.10;;;;;;;2.31;100.00;99681.97;5052751;28;20512;-49
2021/12/06 00:13:37;;;;;;;0.20;0.10;;;;;;;2.20;100.00;99688.16;5052580;28;20867;-50
2021/12/06 00:16:08;;;;;;;0.20;0.10;;;;;;;2.10;100.00;99682.09;5052713;28;20520;-50
2021/12/06 00:18:36;;;;;;;0.20;0.10;;;;;;;2.10;100.00;99683.84;5052299;28;20833;-50
2021/12/06 00:21:03;;;;;;;3.20;2.33;;;;;;;2.26;100.00;99686.38;5052528;28;20876;-50
2021/12/06 00:23:30;;;;;;;0.30;0.20;;;;;;;2.28;100.00;99681.97;5052486;28;20500;-50
2021/12/06 00:25:59;;;;;;;0.20;0.10;;;;;;;2.26;100.00;99685.50;5052602;28;20482;-50
2021/12/06 00:28:26;;;;;;;0.30;0.20;;;;;;;1.99;100.00;99689.97;5052585;28;20467;-50
2021/12/06 00:30:54;;;;;;;0.40;0.40;;;;;;;2.00;100.00;99689.09;5052960;28;20450;-50
2021/12/06 00:33:21;;;;;;;0.20;0.10;;;;;;;2.14;100.00;99682.94;5056463;28;20938;-50
2021/12/06 00:35:49;;;;;;;0.20;0.20;;;;;;;2.21;100.00;99687.28;5054795;28;20442;-50
2021/12/06 00:38:16;;;;;;;0.20;0.10;;;;;;;2.16;100.00;99689.91;5056227;28;20466;-51
2021/12/06 00:40:46;;;;;;;0.30;0.20;;;;;;;2.23;100.00;99688.16;5056113;28;20490;-49
2021/12/06 00:43:13;;;;;;;0.20;0.10;;;;;;;2.26;100.00;99690.75;5049633;28;20500;-50
2021/12/06 00:45:40;;;;;;;0.83;0.83;;;;;;;2.20;100.00;99690.78;5057822;28;20447;-50
2021/12/06 00:48:07;;;;;;;0.20;0.10;;;;;;;2.23;100.00;99693.38;5057524;28;20508;-50
2021/12/06 00:50:38;;;;;;;0.20;0.10;;;;;;;2.30;100.00;99700.31;5056746;28;20446;-50
2021/12/06 00:53:05;;;;;;;0.20;0.10;;;;;;;2.37;100.00;99694.19;5055933;28;20508;-50
2021/12/06 00:55:33;;;;;;;1.03;0.30;;;;;;;2.53;100.00;99701.09;5056275;28;20443;-50
2021/12/06 00:57:59;;;;;;;0.20;0.10;;;;;;;2.43;100.00;99709.88;5056031;28;20447;-50
2021/12/06 01:00:28;;;;;;;0.20;0.10;;;;;;;2.34;100.00;99710.81;5056038;28;20486;-50
2021/12/06 01:02:56;;;;;;;0.20;0.10;;;;;;;2.30;100.00;99713.44;5055966;28;20533;-50
2021/12/06 01:05:24;;;;;;;0.20;0.10;;;;;;;2.48;100.00;99710.75;5055867;28;20454;-50
2021/12/06 01:07:54;;;;;;;0.20;0.10;;;;;;;2.31;100.00;99718.66;5055676;28;20451;-50
2021/12/06 01:10:23;;;;;;;0.30;0.30;;;;;;;2.26;100.00;99722.22;5055728;28;20987;-50
2021/12/06 01:12:55;;;;;;;0.20;0.10;;;;;;;2.52;100.00;99720.34;5055924;28;20453;-50
2021/12/06 01:15:22;;;;;;;0.20;0.10;;;;;;;2.38;100.00;99716.91;5055897;28;20569;-50
2021/12/06 01:17:49;;;;;;;0.20;0.10;;;;;;;2.30;100.00;99724.78;5055479;28;20446;-50
2021/12/06 01:20:20;;;;;;;0.20;0.10;;;;;;;2.13;100.00;99728.38;5055463;28;20494;-50
2021/12/06 01:22:54;;;;;;;0.50;0.50;;;;;;;2.15;100.00;99732.72;5055652;28;20455;-49
2021/12/06 01:25:33;;;;;;;0.20;0.10;;;;;;;2.19;100.00;99737.06;5055726;28;20442;-50
2021/12/06 01:41:15;;;;;;;0.20;0.10;;;;;;;1.67;100.00;99763.44;5044691;28;20454;-50
2021/12/06 01:44:01;;;;;;;0.20;0.10;;;;;;;1.64;100.00;99771.28;5053842;28;20505;-50
2021/12/06 01:46:27;;;;;;;0.30;0.20;;;;;;;1.72;100.00;99771.28;5055336;28;20505;-50
2021/12/06 01:48:54;;;;;;;0.20;0.10;;;;;;;1.68;100.00;99780.03;5054806;28;20471;-50
2021/12/06 01:51:20;;;;;;;0.20;0.20;;;;;;;1.71;100.00;99774.78;5055078;28;20458;-50
2021/12/06 01:53:47;;;;;;;0.20;0.10;;;;;;;1.64;100.00;99780.88;5055077;28;20458;-50
2021/12/06 01:56:15;;;;;;;0.30;0.20;;;;;;;1.60;100.00;99779.16;5055106;28;20451;-50
2021/12/06 01:58:43;;;;;;;0.20;0.10;;;;;;;1.57;100.00;99780.03;5041823;28;20521;-50
2021/12/06 02:01:10;;;;;;;0.20;0.10;;;;;;;1.72;100.00;99779.13;5054655;28;20490;-50
2021/12/06 02:03:38;;;;;;;0.20;0.10;;;;;;;1.70;100.00;99784.38;5054793;28;20451;-50
2021/12/06 02:06:05;;;;;;;0.20;0.10;;;;;;;1.93;100.00;99794.84;5054637;28;20447;-50
2021/12/06 02:08:32;;;;;;;0.20;0.20;;;;;;;1.96;100.00;99784.34;5055003;28;20467;-50
2021/12/06 02:11:02;;;;;;;1.13;1.13;;;;;;;2.13;100.00;99791.28;5055116;28;20450;-50
2021/12/06 02:13:33;;;;;;;0.20;0.10;;;;;;;2.07;100.00;99793.06;5054782;28;20447;-50
2021/12/06 02:16:02;;;;;;;0.57;0.57;;;;;;;2.00;100.00;99798.31;5054711;28;20481;-50
2021/12/06 02:21:25;;;;;;;0.20;0.10;;;;;;;1.89;100.00;99800.94;5054537;28;20490;-50
2021/12/06 02:23:53;;;;;;;0.20;0.20;;;;;;;2.00;100.00;99799.19;5054348;28;20909;-50
2021/12/06 02:26:21;;;;;;;0.20;0.10;;;;;;;2.00;100.00;99798.31;5054455;28;20455;-50
2021/12/06 02:28:48;;;;;;;0.20;0.10;;;;;;;1.99;100.00;99801.81;5054156;28;20471;-50
2021/12/06 02:31:16;;;;;;;0.20;0.10;;;;;;;1.78;100.00;99795.75;5054273;28;20443;-50
2021/12/06 02:33:45;;;;;;;0.20;0.10;;;;;;;1.73;100.00;99796.59;5054165;28;20815;-50
2021/12/06 02:36:12;;;;;;;0.20;0.10;;;;;;;1.51;100.00;99795.75;5054193;28;21013;-50
2021/12/06 02:38:39;;;;;;;0.20;0.10;;;;;;;1.68;100.00;99806.22;5053709;28;20517;-49
2021/12/06 02:41:08;;;;;;;0.20;0.10;;;;;;;1.70;100.00;99810.56;5054052;28;20490;-50
2021/12/06 02:43:36;;;;;;;0.20;0.10;;;;;;;1.80;100.00;99808.84;5054105;28;20459;-50
2021/12/06 02:46:04;;;;;;;0.20;0.20;;;;;;;1.76;100.00;99814.91;5054000;28;20455;-50
2021/12/06 02:48:31;;;;;;;0.20;0.10;;;;;;;1.85;100.00;99814.94;5053937;28;20509;-50
2021/12/06 02:51:00;;;;;;;0.87;0.63;;;;;;;1.93;100.00;99817.56;5053970;28;20443;-50
2021/12/06 02:53:29;;;;;;;0.20;0.10;;;;;;;1.87;100.00;99825.41;5053808;28;20875;-50
2021/12/06 02:55:59;;;;;;;0.30;0.20;;;;;;;1.74;100.00;99820.16;5053720;28;20542;-50
2021/12/06 02:58:55;;;;;;;0.20;0.10;;;;;;;1.69;100.00;99837.66;5053595;28;20956;-50
2021/12/06 03:01:24;;;;;;;0.20;0.10;;;;;;;1.83;100.00;99836.78;5053441;28;20526;-50
2021/12/06 03:03:51;;;;;;;0.20;0.10;;;;;;;1.85;100.00;99842.88;5053722;28;20533;-50
2021/12/06 03:06:19;;;;;;;0.20;0.10;;;;;;;1.83;100.00;99842.88;5053466;28;20455;-50
2021/12/06 03:08:57;;;;;;;0.20;0.10;;;;;;;1.75;100.00;99842.88;5053759;28;20475;-50
2021/12/06 03:11:29;;;;;;;0.20;0.10;;;;;;;1.80;100.00;99839.41;5053621;28;20936;-50
2021/12/06 03:13:56;;;;;;;0.20;0.20;;;;;;;1.81;100.00;99833.28;5053514;28;20450;-50
2021/12/06 03:16:24;;;;;;;0.20;0.10;;;;;;;1.73;100.00;99841.13;5053342;28;20520;-50
2021/12/06 03:18:53;;;;;;;0.20;0.10;;;;;;;1.69;100.00;99836.78;5053096;28;20495;-50
2021/12/06 03:21:21;;;;;;;0.20;0.10;;;;;;;1.68;100.00;99835.91;5053354;28;20632;-50
2021/12/06 03:23:48;;;;;;;0.20;0.20;;;;;;;1.62;100.00;99841.13;5053410;28;20447;-50
2021/12/06 03:26:17;;;;;;;0.20;0.10;;;;;;;1.62;100.00;99843.75;5053169;28;20454;-50
2021/12/06 03:28:45;;;;;;;0.30;0.30;;;;;;;1.57;100.00;99850.75;5053102;28;20466;-50
2021/12/06 03:31:13;;;;;;;0.20;0.10;;;;;;;1.50;100.00;99846.34;5040654;28;20443;-50
2021/12/06 03:33:43;;;;;;;0.57;0.57;;;;;;;1.54;100.00;99855.09;5052935;28;20959;-50
2021/12/06 03:36:12;;;;;;;0.20;0.10;;;;;;;1.36;100.00;99856.81;5053606;28;20447;-50
2021/12/06 03:38:39;;;;;;;0.20;0.10;;;;;;;1.32;100.00;99852.44;5053351;28;20478;-50
2021/12/06 03:41:09;;;;;;;0.20;0.10;;;;;;;1.39;100.00;99862.06;5053696;28;20490;-50
2021/12/06 03:43:38;;;;;;;0.20;0.20;;;;;;;1.45;100.00;99866.44;5053961;28;20940;-50
2021/12/06 03:46:04;;;;;;;0.20;0.10;;;;;;;1.45;100.00;99869.94;5055485;28;20501;-50
2021/12/06 03:48:31;;;;;;;0.30;0.20;;;;;;;1.49;100.00;99870.78;5055679;28;20997;-51
2021/12/06 03:50:59;;;;;;;0.30;0.30;;;;;;;1.44;100.00;99875.16;5054944;28;20497;-50
2021/12/06 03:53:27;;;;;;;0.50;0.50;;;;;;;1.29;100.00;99881.25;5052777;28;20446;-49
2021/12/06 03:55:54;;;;;;;0.20;0.10;;;;;;;1.16;100.00;99882.09;5052819;28;20447;-50
2021/12/06 03:58:21;;;;;;;0.20;0.10;;;;;;;1.10;100.00;99882.09;5052438;28;20975;-50
2021/12/06 04:00:48;;;;;;;0.20;0.10;;;;;;;1.09;100.00;99881.19;5052608;28;20530;-49
2021/12/06 04:03:17;;;;;;;0.20;0.10;;;;;;;1.03;100.00;99881.19;5052486;28;20955;-50
2021/12/06 04:05:44;;;;;;;0.20;0.10;;;;;;;1.14;100.00;99892.56;5052162;28;20991;-50
2021/12/06 04:08:11;;;;;;;0.20;0.10;;;;;;;1.04;100.00;99892.50;5052626;28;20447;-50
2021/12/06 04:10:38;;;;;;;0.20;0.20;;;;;;;1.18;100.00;99896.06;5052570;28;20710;-50
2021/12/06 04:13:05;;;;;;;0.20;0.10;;;;;;;1.19;100.00;99892.56;5052420;28;20454;-50
2021/12/06 04:15:33;;;;;;;0.20;0.10;;;;;;;1.01;100.00;99902.97;5052694;28;20501;-49
2021/12/06 04:18:00;;;;;;;0.20;0.10;;;;;;;1.11;100.00;99895.16;5052386;28;20798;-50
2021/12/06 04:20:27;;;;;;;0.20;0.10;;;;;;;1.14;100.00;99895.19;5052551;28;20486;-50
2021/12/06 04:22:55;;;;;;;0.20;0.20;;;;;;;1.24;100.00;99893.47;5052567;28;20453;-50
2021/12/06 04:25:21;;;;;;;0.20;0.10;;;;;;;1.19;100.00;99900.41;5052389;28;20454;-50
2021/12/06 04:27:55;;;;;;;0.20;0.10;;;;;;;1.14;100.00;99897.78;5052326;28;20882;-50
2021/12/06 04:30:24;;;;;;;0.20;0.10;;;;;;;1.07;100.00;99906.47;5052337;28;20932;-50
2021/12/06 04:32:53;;;;;;;0.20;0.10;;;;;;;1.07;100.00;99908.22;5052351;28;20451;-49
2021/12/06 04:35:24;;;;;;;0.20;0.20;;;;;;;1.02;100.00;99915.19;5052191;28;20496;-49
2021/12/06 04:37:52;;;;;;;0.20;0.10;;;;;;;1.03;100.00;99920.44;5052322;28;20457;-49
2021/12/06 04:40:18;;;;;;;0.20;0.10;;;;;;;0.74;100.00;99919.44;5052644;28;20499;-50
2021/12/06 04:42:46;;;;;;;0.20;0.10;;;;;;;0.87;100.00;99916.88;5052080;28;21021;-50
2021/12/06 04:45:15;;;;;;;0.30;0.20;;;;;;;1.00;100.00;99927.41;5052348;28;20474;-50
2021/12/06 04:47:43;;;;;;;0.20;0.10;;;;;;;1.05;100.00;99934.38;5052219;28;20450;-50
2021/12/06 04:50:12;;;;;;;0.67;0.67;;;;;;;0.96;100.00;99937.00;5051835;28;20478;-50
2021/12/06 04:52:40;;;;;;;0.20;0.10;;;;;;;1.05;100.00;99929.16;5052002;28;20473;-50
2021/12/06 04:55:40;;;;;;;0.20;0.10;;;;;;;1.02;100.00;99938.75;5052276;28;20450;-50
2021/12/06 04:58:09;;;;;;;0.20;0.10;;;;;;;0.87;100.00;99944.78;5014245;28;20497;-49
2021/12/06 05:01:05;;;;;;;0.20;0.10;;;;;;;0.82;100.00;99944.78;5052120;28;20483;-50
2021/12/06 05:03:33;;;;;;;0.20;0.10;;;;;;;0.86;100.00;99943.03;5045246;28;20890;-50
2021/12/06 05:06:09;;;;;;;0.20;0.10;;;;;;;0.70;100.00;99941.22;5052285;28;20451;-49
2021/12/06 05:08:44;;;;;;;0.20;0.10;;;;;;;0.84;100.00;99932.56;5040162;28;20524;-49
2021/12/06 05:11:12;;;;;;;0.20;0.10;;;;;;;0.78;100.00;99934.25;5051811;28;20919;-49
2021/12/06 05:13:42;;;;;;;0.20;0.13;;;;;;;0.82;100.00;99936.03;5051777;28;20808;-50
2021/12/06 05:16:09;;;;;;;0.20;0.10;;;;;;;0.85;100.00;99943.91;5034450;28;20935;-49
2021/12/06 05:18:35;;;;;;;0.20;0.10;;;;;;;0.65;100.00;99954.25;5054938;28;20546;-49
2021/12/06 05:21:03;;;;;;;0.20;0.10;;;;;;;0.67;100.00;99959.47;5055564;28;20487;-49
2021/12/06 05:23:30;;;;;;;0.30;0.20;;;;;;;0.77;100.00;99956.06;5055508;28;20870;-49
2021/12/06 05:25:57;;;;;;;0.20;0.10;;;;;;;0.74;100.00;99964.78;5055328;28;20455;-49
2021/12/06 05:28:27;;;;;;;0.20;0.20;;;;;;;0.68;100.00;99964.72;5055463;28;20462;-49
2021/12/06 05:30:56;;;;;;;1.60;1.37;;;;;;;0.55;100.00;99970.75;5055578;28;20442;-49
2021/12/06 05:33:31;;;;;;;0.20;0.10;;;;;;;0.61;100.00;99975.16;5055338;28;20887;-49
2021/12/06 05:36:02;;;;;;;0.20;0.10;;;;;;;0.55;100.00;99981.22;5055377;28;20962;-50
2021/12/06 05:38:30;;;;;;;0.20;0.10;;;;;;;0.31;100.00;99991.50;5055572;28;20466;-50
2021/12/06 05:40:57;;;;;;;0.20;0.10;;;;;;;0.25;100.00;100001.00;5041879;28;21080;-48
2021/12/06 05:43:25;;;;;;;0.20;0.10;;;;;;;0.20;100.00;100013.19;5055240;28;20924;-49
2021/12/06 05:45:52;;;;;;;0.20;0.20;;;;;;;0.21;100.00;100011.44;5055335;28;20458;-49
2021/12/06 05:48:19;;;;;;;0.30;0.20;;;;;;;0.25;100.00;100021.06;5054946;28;20471;-49
2021/12/06 05:50:49;;;;;;;0.20;0.10;;;;;;;0.20;100.00;100015.78;5055284;28;20447;-49
2021/12/06 05:53:17;;;;;;;0.20;0.10;;;;;;;0.21;100.00;100030.59;5054884;28;20859;-49
2021/12/06 05:55:45;;;;;;;0.20;0.10;;;;;;;0.16;100.00;100034.94;5055390;28;20451;-49
2021/12/06 05:58:18;;;;;;;0.30;0.20;;;;;;;0.20;100.00;100036.69;5054838;28;20860;-49
2021/12/06 06:00:46;;;;;;;0.70;0.70;;;;;;;0.21;100.00;100048.03;5055475;28;20491;-49
2021/12/06 06:03:13;;;;;;;0.20;0.20;;;;;;;0.13;100.00;100047.94;5055291;28;20500;-49
2021/12/06 06:05:40;;;;;;;0.20;0.10;;;;;;;0.24;100.00;100048.91;5055147;28;20458;-49
2021/12/06 06:08:07;;;;;;;0.20;0.10;;;;;;;0.26;100.00;100059.38;5055005;28;20572;-49
2021/12/06 06:10:34;;;;;;;0.20;0.10;;;;;;;0.25;100.00;100066.34;5054972;28;20447;-49
2021/12/06 06:13:03;;;;;;;0.20;0.10;;;;;;;0.35;100.00;100069.94;5054791;28;20497;-48
2021/12/06 06:15:30;;;;;;;0.20;0.10;;;;;;;0.37;100.00;100067.34;5054819;28;20473;-48
2021/12/06 06:17:58;;;;;;;0.20;0.20;;;;;;;0.39;100.00;100074.31;5054229;28;20940;-49
2021/12/06 06:20:35;;;;;;;0.20;0.10;;;;;;;0.40;100.00;100075.19;5054502;28;21066;-48
2021/12/06 06:23:03;;;;;;;0.20;0.10;;;;;;;0.48;100.00;100078.75;5037427;28;20451;-49
2021/12/06 06:25:30;;;;;;;0.47;0.47;;;;;;;0.34;100.00;100075.16;5055317;28;21051;-49
2021/12/06 06:27:57;;;;;;;0.20;0.10;;;;;;;0.37;100.00;100077.78;5057085;28;20454;-49
2021/12/06 06:30:24;;;;;;;0.20;0.10;;;;;;;0.51;100.00;100081.41;5056516;28;20447;-49
2021/12/06 06:32:51;;;;;;;0.20;0.10;;;;;;;0.33;100.00;100089.09;5043337;28;20447;-49
2021/12/06 06:35:19;;;;;;;0.20;0.10;;;;;;;0.48;100.00;100102.28;5037324;28;21013;-50
2021/12/06 06:37:46;;;;;;;0.20;0.10;;;;;;;0.47;100.00;100093.56;5054572;28;21015;-49
2021/12/06 06:40:13;;;;;;;0.20;0.10;;;;;;;0.48;100.00;100097.94;5054381;28;20536;-49
2021/12/06 06:42:41;;;;;;;0.20;0.10;;;;;;;0.38;100.00;100096.09;5054304;28;20959;-49
2021/12/06 06:45:10;;;;;;;0.20;0.10;;;;;;;0.49;100.00;100099.69;5054110;28;20508;-49
2021/12/06 06:47:37;;;;;;;0.20;0.10;;;;;;;0.38;100.00;100098.72;5054364;28;20512;-49
2021/12/06 06:50:05;;;;;;;0.27;0.20;;;;;;;0.48;100.00;100102.28;5054435;28;20504;-50
2021/12/06 06:52:31;;;;;;;0.20;0.10;;;;;;;0.68;100.00;100107.69;5054320;28;20447;-50
2021/12/06 06:54:59;;;;;;;0.20;0.10;;;;;;;0.58;100.00;100112.84;5054144;28;20512;-51
2021/12/06 06:57:26;;;;;;;0.20;0.20;;;;;;;0.57;100.00;100118.06;5053979;28;20477;-50
2021/12/06 06:59:53;;;;;;;0.20;0.10;;;;;;;0.70;100.00;100130.41;5053706;28;20525;-50
2021/12/06 07:02:20;;;;;;;0.20;0.10;;;;;;;0.66;100.00;100131.22;5053645;28;20517;-50
2021/12/06 07:04:47;;;;;;;0.20;0.10;;;;;;;0.59;100.00;100137.25;5050687;28;20462;-50
2021/12/06 07:07:13;;;;;;;0.20;0.10;;;;;;;0.85;100.00;100137.50;5034188;28;20452;-50
2021/12/06 07:09:42;;;;;;;0.20;0.10;;;;;;;0.87;100.00;100148.84;5050699;28;20479;-50
2021/12/06 07:12:16;;;;;;;0.20;0.10;;;;;;;0.94;100.00;100141.91;5053907;28;20513;-50
2021/12/06 07:14:46;;;;;;;0.20;0.10;;;;;;;0.96;100.00;100128.00;5053716;28;20919;-50
2021/12/06 07:17:15;;;;;;;0.20;0.10;;;;;;;0.96;100.00;100133.22;5053700;28;20481;-50
2021/12/06 07:19:42;;;;;;;0.20;0.10;;;;;;;0.97;100.00;100137.59;5053585;28;20501;-50
2021/12/06 07:22:10;;;;;;;0.20;0.10;;;;;;;1.09;100.00;100136.78;5053600;28;20501;-50
2021/12/06 07:24:37;;;;;;;0.73;0.73;;;;;;;1.15;100.00;100145.56;5053565;28;20450;-50
2021/12/06 07:27:04;;;;;;;0.60;0.60;;;;;;;1.18;100.00;100144.69;5053670;28;20508;-50
2021/12/06 07:29:33;;;;;;;0.20;0.10;;;;;;;1.14;100.00;100142.94;5053712;28;20471;-50
2021/12/06 07:32:02;;;;;;;0.20;0.10;;;;;;;1.13;100.00;100146.44;5040097;28;20454;-50
2021/12/06 07:34:28;;;;;;;0.20;0.10;;;;;;;1.01;100.00;100156.81;5053635;28;20450;-50
2021/12/06 07:36:55;;;;;;;0.20;0.10;;;;;;;1.00;100.00;100148.06;5053127;28;20443;-50
2021/12/06 07:39:22;;;;;;;0.20;0.20;;;;;;;1.06;100.00;100147.22;5053457;28;20979;-50
2021/12/06 07:41:50;;;;;;;0.20;0.20;;;;;;;0.98;100.00;100151.56;5034657;28;20848;-50
2021/12/06 07:44:17;;;;;;;0.20;0.10;;;;;;;0.99;100.00;100145.44;5045626;28;20886;-50
2021/12/06 07:46:44;;;;;;;0.20;0.10;;;;;;;1.00;100.00;100157.66;5048580;28;20450;-50
2021/12/06 07:49:11;;;;;;;0.20;0.10;;;;;;;0.96;100.00;100161.09;5053277;28;20467;-50
2021/12/06 07:51:37;;;;;;;0.20;0.10;;;;;;;1.06;100.00;100171.66;5052982;28;20457;-50
2021/12/06 07:54:04;;;;;;;0.20;0.10;;;;;;;1.05;100.00;100167.28;5053502;28;20446;-50
2021/12/06 07:56:31;;;;;;;0.20;0.10;;;;;;;1.08;100.00;100171.66;5053379;28;20877;-50
2021/12/06 07:58:57;;;;;;;0.20;0.10;;;;;;;1.15;100.00;100169.13;5053124;28;20483;-50
2021/12/06 08:01:24;;;;;;;0.30;0.20;;;;;;;1.13;100.00;100181.31;5052763;28;20494;-50
2021/12/06 08:03:51;;;;;;;2.00;1.90;;;;;;;1.09;100.00;100184.75;5052862;28;20454;-50
2021/12/06 08:06:18;;;;;;;0.20;0.10;;;;;;;1.17;100.00;100187.44;5053470;28;20446;-50
2021/12/06 08:08:46;;;;;;;0.20;0.10;;;;;;;1.19;100.00;100191.81;5035351;28;20462;-50
2021/12/06 08:11:16;;;;;;;0.20;0.10;;;;;;;1.27;100.00;100193.66;5053060;28;20455;-50
2021/12/06 08:13:50;;;;;;;0.20;0.10;;;;;;;1.30;100.00;100189.28;5053166;28;20451;-50
2021/12/06 08:16:19;;;;;;;4.10;3.80;;;;;;;1.30;100.00;100184.06;5053087;28;20469;-50
2021/12/06 08:18:47;;;;;;;0.20;0.10;;;;;;;1.21;100.00;100178.75;5053268;28;20474;-50
2021/12/06 08:21:15;;;;;;;0.20;0.10;;;;;;;0.96;100.00;100185.56;5055119;28;20490;-50
2021/12/06 08:23:42;;;;;;;0.20;0.10;;;;;;;0.94;100.00;100181.16;5054236;28;20497;-50
2021/12/06 08:26:10;;;;;;;0.20;0.10;;;;;;;1.03;100.00;100191.69;5037269;28;20507;-50
2021/12/06 08:28:38;;;;;;;0.20;0.10;;;;;;;1.11;100.00;100185.69;5055508;28;20835;-50
2021/12/06 08:31:06;;;;;;;0.67;0.57;;;;;;;1.17;100.00;100185.72;5056107;28;20447;-51
2021/12/06 08:33:34;;;;;;;0.20;0.10;;;;;;;1.23;100.00;100177.00;5056244;28;20455;-51
2021/12/06 08:36:04;;;;;;;0.30;0.20;;;;;;;1.34;100.00;100174.47;5039744;28;20463;-50
2021/12/06 08:38:33;;;;;;;0.20;0.10;;;;;;;1.37;100.00;100164.00;5052671;28;20482;-50
2021/12/06 08:41:03;;;;;;;0.20;0.10;;;;;;;1.44;100.00;100163.19;5052694;28;20540;-50
2021/12/06 08:43:31;;;;;;;0.20;0.10;;;;;;;1.56;100.00;100168.53;5053227;28;20443;-50
2021/12/06 08:46:07;;;;;;;0.20;0.10;;;;;;;1.56;100.00;100159.78;5052662;28;20454;-50
2021/12/06 08:48:36;;;;;;;0.60;0.60;;;;;;;1.63;100.00;100172.03;5052516;28;20553;-50
2021/12/06 08:51:13;;;;;;;0.20;0.10;;;;;;;1.71;100.00;100170.34;5053107;28;20488;-50
2021/12/06 08:53:41;;;;;;;0.20;0.10;;;;;;;1.71;100.00;100167.72;5056861;28;20438;-50
2021/12/06 08:56:08;;;;;;;0.20;0.10;;;;;;;1.84;100.00;100164.28;5057427;28;20512;-50
2021/12/06 08:58:35;;;;;;;0.20;0.10;;;;;;;1.94;100.00;100165.22;5056339;28;20887;-50
2021/12/06 09:01:04;;;;;;;0.20;0.10;;;;;;;2.02;100.00;100161.75;5058023;28;21071;-49
2021/12/06 09:03:34;;;;;;;0.20;0.10;;;;;;;2.02;100.00;100166.97;5056610;28;20451;-49
2021/12/06 09:06:04;;;;;;;0.20;0.10;;;;;;;2.04;100.00;100157.38;5056669;28;20522;-49
2021/12/06 09:08:32;;;;;;;0.20;0.10;;;;;;;2.13;100.00;100163.53;5056557;28;20470;-49
2021/12/06 09:10:59;;;;;;;0.20;0.10;;;;;;;2.18;100.00;100157.41;5056184;28;20454;-49
2021/12/06 09:13:28;;;;;;;0.20;0.20;;;;;;;2.23;100.00;100160.09;5038302;28;20451;-49
2021/12/06 09:15:59;;;;;;;0.20;0.20;;;;;;;2.26;100.00;100165.31;5056202;28;20443;-49
2021/12/06 09:18:29;;;;;;;0.20;0.10;;;;;;;2.43;100.00;100166.25;5056317;28;20828;-49
2021/12/06 09:20:57;;;;;;;0.20;0.10;;;;;;;2.45;100.00;100168.84;5056033;28;20457;-50
2021/12/06 09:23:25;;;;;;;0.20;0.10;;;;;;;2.61;100.00;100166.28;5055623;28;20489;-50
2021/12/06 09:25:53;;;;;;;0.20;0.13;;;;;;;2.71;100.00;100166.28;5055771;28;20469;-49
2021/12/06 09:28:21;;;;;;;0.20;0.10;;;;;;;2.65;100.00;100175.03;5055978;28;20545;-50
2021/12/06 09:30:48;;;;;;;0.20;0.10;;;;;;;2.78;100.00;100174.19;5055837;28;20516;-50
2021/12/06 09:33:17;;;;;;;0.20;0.10;;;;;;;3.24;100.00;100175.03;5055838;28;20472;-50
2021/12/06 09:35:46;;;;;;;0.20;0.20;;;;;;;3.04;100.00;100183.81;5056898;28;20497;-50
2021/12/06 09:38:16;;;;;;;0.20;0.10;;;;;;;2.92;100.00;100179.44;5055459;28;20446;-51
2021/12/06 09:40:46;;;;;;;0.20;0.10;;;;;;;2.85;100.00;100177.66;5055376;28;20447;-50
2021/12/06 09:43:15;;;;;;;0.30;0.20;;;;;;;3.03;100.00;100172.44;5048216;28;20556;-50
2021/12/06 09:45:44;;;;;;;0.20;0.10;;;;;;;2.88;100.00;100173.31;5055271;28;20938;-50
2021/12/06 09:48:14;;;;;;;0.20;0.10;;;;;;;3.31;100.00;100173.31;5055003;28;20534;-50
2021/12/06 09:50:50;;;;;;;0.20;0.10;;;;;;;3.29;100.00;100177.69;5037366;28;20443;-50
2021/12/06 09:53:20;;;;;;;1.00;0.90;;;;;;;3.65;100.00;100181.97;5055415;28;20434;-50
2021/12/06 09:55:50;;;;;;;0.20;0.10;;;;;;;3.25;100.00;100183.78;5055528;28;20504;-50
2021/12/06 09:58:17;;;;;;;0.30;0.10;;;;;;;3.58;100.00;100185.53;5055097;28;20521;-50
2021/12/06 10:00:49;;;;;;;0.20;0.20;;;;;;;3.29;100.00;100180.31;5054970;28;20867;-50
2021/12/06 10:03:22;;;;;;;0.20;0.10;;;;;;;3.63;100.00;100183.75;5054462;28;20497;-50
2021/12/06 10:05:49;;;;;;;0.20;0.10;;;;;;;3.68;100.00;100178.47;5055000;28;20443;-50
2021/12/06 10:08:16;;;;;;;0.20;0.10;;;;;;;3.63;100.00;100178.50;5054724;28;20509;-50
2021/12/06 10:10:43;;;;;;;0.20;0.10;;;;;;;3.72;100.00;100174.97;5054746;28;20997;-50
2021/12/06 10:13:10;;;;;;;0.20;0.10;;;;;;;3.54;100.00;100171.50;5054570;28;20868;-50
2021/12/06 10:15:37;;;;;;;0.20;0.10;;;;;;;3.65;100.00;100170.59;5054483;28;20512;-50
2021/12/06 10:18:04;;;;;;;0.20;0.20;;;;;;;3.62;100.00;100168.84;5054384;28;20446;-50
2021/12/06 10:20:31;;;;;;;0.20;0.10;;;;;;;3.93;100.00;100174.88;5037502;28;20508;-50
2021/12/06 10:22:59;;;;;;;0.20;0.10;;;;;;;3.81;100.00;100175.81;5036790;28;20494;-50
2021/12/06 10:25:37;;;;;;;0.20;0.10;;;;;;;3.78;100.00;100178.44;5054264;28;20451;-50
2021/12/06 10:28:13;;;;;;;0.30;0.20;;;;;;;3.89;100.00;100174.91;5025969;28;20447;-50
2021/12/06 10:30:44;;;;;;;0.20;0.10;;;;;;;4.04;100.00;100174.84;5036938;28;20447;-50
2021/12/06 10:33:15;;;;;;;0.20;0.20;;;;;;;4.18;100.00;100180.06;5054552;28;20485;-50
2021/12/06 10:35:44;;;;;;;1.73;1.63;;;;;;;4.28;100.00;100181.78;5054435;28;20952;-50
2021/12/06 10:38:18;;;;;;;0.20;0.10;;;;;;;4.08;100.00;100169.56;5054364;28;20446;-51
2021/12/06 10:40:45;;;;;;;0.20;0.10;;;;;;;3.87;100.00;100159.16;5053969;28;20932;-50
2021/12/06 10:43:13;;;;;;;0.20;0.10;;;;;;;4.00;100.00;100166.13;5046980;28;20542;-50
2021/12/06 10:45:47;;;;;;;0.20;0.10;;;;;;;3.88;100.00;100158.28;5054460;28;20509;-50
2021/12/06 10:48:28;;;;;;;0.20;0.10;;;;;;;3.88;100.00;100153.00;5054449;28;20439;-50
2021/12/06 10:51:10;;;;;;;0.20;0.10;;;;;;;3.75;100.00;100146.91;5054334;28;20443;-50
2021/12/06 10:53:42;;;;;;;0.20;0.10;;;;;;;4.01;100.00;100148.56;5054134;28;20500;-50
2021/12/06 10:56:20;;;;;;;0.20;0.10;;;;;;;4.13;100.00;100140.63;5041853;28;20942;-50
2021/12/06 10:58:49;;;;;;;0.20;0.10;;;;;;;4.22;100.00;100147.59;5041149;28;20462;-50
2021/12/06 11:01:21;;;;;;;0.20;0.10;;;;;;;4.40;100.00;100139.63;5053574;28;20443;-50
2021/12/06 11:03:52;;;;;;;0.20;0.10;;;;;;;4.42;100.00;100137.84;5054210;28;20455;-51
2021/12/06 11:06:24;;;;;;;0.20;0.10;;;;;;;4.62;100.00;100140.31;5054111;28;20455;-50
2021/12/06 11:08:54;;;;;;;0.20;0.20;;;;;;;4.59;100.00;100138.59;5053901;28;20521;-50
2021/12/06 11:11:27;;;;;;;0.20;0.20;;;;;;;4.93;100.00;100140.97;5053653;28;20939;-50
2021/12/06 11:14:01;;;;;;;0.70;0.70;;;;;;;4.67;100.00;100144.69;5053313;28;20462;-51
2021/12/06 11:16:31;;;;;;;0.20;0.10;;;;;;;4.83;100.00;100149.84;5053285;28;20505;-52
2021/12/06 11:19:02;;;;;;;0.20;0.10;;;;;;;4.97;100.00;100150.59;5053847;28;20467;-51
2021/12/06 11:21:34;;;;;;;0.20;0.10;;;;;;;4.55;100.00;100150.03;5035879;28;20842;-51
2021/12/06 11:24:03;;;;;;;0.30;0.30;;;;;;;4.51;100.00;100145.66;5053387;28;20496;-51
2021/12/06 11:26:31;;;;;;;0.20;0.10;;;;;;;4.60;100.00;100153.50;5053316;28;20520;-51
2021/12/06 11:29:12;;;;;;;0.20;0.10;;;;;;;4.59;100.00;100151.75;5053921;28;20475;-51
2021/12/06 11:31:42;;;;;;;0.20;0.10;;;;;;;4.87;100.00;100162.97;5053366;28;20446;-51
2021/12/06 11:34:09;;;;;;;0.20;0.10;;;;;;;4.59;100.00;100159.66;5053650;28;20443;-51
2021/12/06 11:36:40;;;;;;;0.20;0.10;;;;;;;4.33;100.00;100165.06;5052855;28;20446;-51
2021/12/06 11:39:17;;;;;;;0.63;0.63;;;;;;;4.32;100.00;100173.84;5053219;28;20483;-50
2021/12/06 11:41:48;;;;;;;0.20;0.10;;;;;;;4.29;100.00;100178.25;5053201;28;20528;-50
2021/12/06 11:44:29;;;;;;;0.30;0.20;;;;;;;4.35;100.00;100167.69;5040885;28;20446;-50
2021/12/06 11:47:05;;;;;;;0.20;0.10;;;;;;;4.58;100.00;100162.31;5053009;28;20459;-50
2021/12/06 11:49:39;;;;;;;0.30;0.20;;;;;;;4.64;100.00;100170.16;5052726;28;20505;-50
2021/12/06 11:52:10;;;;;;;1.07;1.07;;;;;;;4.72;100.00;100169.22;5053090;28;20442;-51
2021/12/06 11:54:51;;;;;;;0.73;0.73;;;;;;;4.73;100.00;100159.56;5052947;28;20871;-50